sensor_id;sensor_type;location;lat;lon;timestamp;temperature;humidity
9450;DHT22;4763;48.370;10.874;2023-06-10T00:02:01;16.70;99.90
9450;DHT22;4763;48.370;10.874;2023-06-10T00:04:29;16.70;99.90
9450;DHT22;4763;48.370;10.874;2023-06-10T00:06:56;16.70;99.90
9450;DHT22;4763;48.370;10.874;2023-06-10T00:09:25;16.70;99.90
9450;DHT22;4763;48.370;10.874;2023-06-10T00:11:52;16.70;99.90
9450;DHT22;4763;48.370;10.874;2023-06-10T00:14:19;16.70;99.90
9450;DHT22;4763;48.370;10.874;2023-06-10T00:16:46;16.70;99.90
9450;DHT22;4763;48.370;10.874;2023-06-10T00:19:14;16.60;99.90
9450;DHT22;4763;48.370;10.874;2023-06-10T00:21:42;16.60;99.90
9450;DHT22;4763;48.370;10.874;2023-06-10T00:24:10;16.50;99.90
9450;DHT22;4763;48.370;10.874;2023-06-10T00:26:38;16.40;99.90
9450;DHT22;4763;48.370;10.874;2023-06-10T00:29:05;16.30;99.90
9450;DHT22;4763;48.370;10.874;2023-06-10T00:31:33;16.20;99.90
9450;DHT22;4763;48.370;10.874;2023-06-10T00:34:00;16.20;99.90
9450;DHT22;4763;48.370;10.874;2023-06-10T00:36:28;16.10;99.90
9450;DHT22;4763;48.370;10.874;2023-06-10T00:38:55;16.10;99.90
9450;DHT22;4763;48.370;10.874;2023-06-10T00:41:22;16.10;99.90
9450;DHT22;4763;48.370;10.874;2023-06-10T00:43:48;16.00;99.90
9450;DHT22;4763;48.370;10.874;2023-06-10T00:46:16;16.00;99.90
9450;DHT22;4763;48.370;10.874;2023-06-10T00:48:45;16.00;99.90
9450;DHT22;4763;48.370;10.874;2023-06-10T00:51:12;15.90;99.90
9450;DHT22;4763;48.370;10.874;2023-06-10T00:53:41;15.90;99.90
9450;DHT22;4763;48.370;10.874;2023-06-10T00:56:08;15.90;99.90
9450;DHT22;4763;48.370;10.874;2023-06-10T00:58:36;15.80;99.90
9450;DHT22;4763;48.370;10.874;2023-06-10T01:01:03;15.80;99.90
9450;DHT22;4763;48.370;10.874;2023-06-10T01:03:30;15.80;99.90
9450;DHT22;4763;48.370;10.874;2023-06-10T01:06:01;15.80;99.90
9450;DHT22;4763;48.370;10.874;2023-06-10T01:08:35;15.70;99.90
9450;DHT22;4763;48.370;10.874;2023-06-10T01:11:08;15.70;99.90
9450;DHT22;4763;48.370;10.874;2023-06-10T01:13:41;15.70;99.90
9450;DHT22;4763;48.370;10.874;2023-06-10T01:16:09;15.70;99.90
9450;DHT22;4763;48.370;10.874;2023-06-10T01:18:36;15.60;99.90
9450;DHT22;4763;48.370;10.874;2023-06-10T01:21:04;15.60;99.90
9450;DHT22;4763;48.370;10.874;2023-06-10T01:23:34;15.60;99.90
9450;DHT22;4763;48.370;10.874;2023-06-10T01:26:04;15.60;99.90
9450;DHT22;4763;48.370;10.874;2023-06-10T01:28:38;15.60;99.90
9450;DHT22;4763;48.370;10.874;2023-06-10T01:31:15;15.60;99.90
9450;DHT22;4763;48.370;10.874;2023-06-10T01:33:45;15.60;99.90
9450;DHT22;4763;48.370;10.874;2023-06-10T01:36:15;15.50;99.90
9450;DHT22;4763;48.370;10.874;2023-06-10T01:38:45;15.50;99.90
9450;DHT22;4763;48.370;10.874;2023-06-10T01:41:14;15.40;99.90
9450;DHT22;4763;48.370;10.874;2023-06-10T01:43:43;15.40;99.90
9450;DHT22;4763;48.370;10.874;2023-06-10T01:46:10;15.40;99.90
9450;DHT22;4763;48.370;10.874;2023-06-10T01:48:41;15.40;99.90
9450;DHT22;4763;48.370;10.874;2023-06-10T01:51:08;15.40;99.90
9450;DHT22;4763;48.370;10.874;2023-06-10T01:53:35;15.30;99.90
9450;DHT22;4763;48.370;10.874;2023-06-10T01:56:04;15.40;99.90
9450;DHT22;4763;48.370;10.874;2023-06-10T01:58:42;15.30;99.90
9450;DHT22;4763;48.370;10.874;2023-06-10T02:01:09;15.30;99.90
9450;DHT22;4763;48.370;10.874;2023-06-10T02:03:36;15.30;99.90
9450;DHT22;4763;48.370;10.874;2023-06-10T02:06:03;15.30;99.90
9450;DHT22;4763;48.370;10.874;2023-06-10T02:08:30;15.30;99.90
9450;DHT22;4763;48.370;10.874;2023-06-10T02:10:56;15.20;99.90
9450;DHT22;4763;48.370;10.874;2023-06-10T02:13:24;15.20;99.90
9450;DHT22;4763;48.370;10.874;2023-06-10T02:15:51;15.20;99.90
9450;DHT22;4763;48.370;10.874;2023-06-10T02:18:21;15.20;99.90
9450;DHT22;4763;48.370;10.874;2023-06-10T02:20:49;15.10;99.90
9450;DHT22;4763;48.370;10.874;2023-06-10T02:23:15;15.10;99.90
9450;DHT22;4763;48.370;10.874;2023-06-10T02:25:42;15.10;99.90
9450;DHT22;4763;48.370;10.874;2023-06-10T02:28:09;15.10;99.90
9450;DHT22;4763;48.370;10.874;2023-06-10T02:30:40;15.10;99.90
9450;DHT22;4763;48.370;10.874;2023-06-10T02:33:07;15.00;99.90
9450;DHT22;4763;48.370;10.874;2023-06-10T02:35:39;15.10;99.90
9450;DHT22;4763;48.370;10.874;2023-06-10T02:38:06;15.00;99.90
9450;DHT22;4763;48.370;10.874;2023-06-10T02:40:32;15.00;99.90
9450;DHT22;4763;48.370;10.874;2023-06-10T02:42:59;15.00;99.90
9450;DHT22;4763;48.370;10.874;2023-06-10T02:45:26;15.00;99.90
9450;DHT22;4763;48.370;10.874;2023-06-10T02:47:57;15.00;99.90
9450;DHT22;4763;48.370;10.874;2023-06-10T02:50:24;14.90;99.90
9450;DHT22;4763;48.370;10.874;2023-06-10T02:52:51;14.90;99.90
9450;DHT22;4763;48.370;10.874;2023-06-10T02:55:18;14.90;99.90
9450;DHT22;4763;48.370;10.874;2023-06-10T02:57:45;14.90;99.90
9450;DHT22;4763;48.370;10.874;2023-06-10T03:00:13;14.80;99.90
9450;DHT22;4763;48.370;10.874;2023-06-10T03:02:43;14.80;99.90
9450;DHT22;4763;48.370;10.874;2023-06-10T03:05:12;14.80;99.90
9450;DHT22;4763;48.370;10.874;2023-06-10T03:07:39;14.80;99.90
9450;DHT22;4763;48.370;10.874;2023-06-10T03:10:09;14.70;99.90
9450;DHT22;4763;48.370;10.874;2023-06-10T03:12:36;14.70;99.90
9450;DHT22;4763;48.370;10.874;2023-06-10T03:15:03;14.70;99.90
9450;DHT22;4763;48.370;10.874;2023-06-10T03:17:30;14.70;99.90
9450;DHT22;4763;48.370;10.874;2023-06-10T03:20:00;14.60;99.90
9450;DHT22;4763;48.370;10.874;2023-06-10T03:22:28;14.60;99.90
9450;DHT22;4763;48.370;10.874;2023-06-10T03:24:57;14.50;99.90
9450;DHT22;4763;48.370;10.874;2023-06-10T03:27:25;14.50;99.90
9450;DHT22;4763;48.370;10.874;2023-06-10T03:29:52;14.50;99.90
9450;DHT22;4763;48.370;10.874;2023-06-10T03:32:19;14.50;99.90
9450;DHT22;4763;48.370;10.874;2023-06-10T03:34:45;14.40;99.90
9450;DHT22;4763;48.370;10.874;2023-06-10T03:37:13;14.50;99.90
9450;DHT22;4763;48.370;10.874;2023-06-10T03:39:41;14.50;99.90
9450;DHT22;4763;48.370;10.874;2023-06-10T03:42:07;14.40;99.90
9450;DHT22;4763;48.370;10.874;2023-06-10T03:44:34;14.40;99.90
9450;DHT22;4763;48.370;10.874;2023-06-10T03:47:02;14.40;99.90
9450;DHT22;4763;48.370;10.874;2023-06-10T03:49:28;14.40;99.90
9450;DHT22;4763;48.370;10.874;2023-06-10T03:51:58;14.40;99.90
9450;DHT22;4763;48.370;10.874;2023-06-10T03:54:24;14.40;99.90
9450;DHT22;4763;48.370;10.874;2023-06-10T03:56:53;14.40;99.90
9450;DHT22;4763;48.370;10.874;2023-06-10T03:59:19;14.40;99.90
9450;DHT22;4763;48.370;10.874;2023-06-10T04:01:46;14.50;99.90
9450;DHT22;4763;48.370;10.874;2023-06-10T04:04:14;14.50;99.90
9450;DHT22;4763;48.370;10.874;2023-06-10T04:06:42;14.50;99.90
9450;DHT22;4763;48.370;10.874;2023-06-10T04:09:10;14.50;99.90
9450;DHT22;4763;48.370;10.874;2023-06-10T04:11:39;14.60;99.90
9450;DHT22;4763;48.370;10.874;2023-06-10T04:14:07;14.60;99.90
9450;DHT22;4763;48.370;10.874;2023-06-10T04:16:34;14.60;99.90
9450;DHT22;4763;48.370;10.874;2023-06-10T04:19:01;14.60;99.90
9450;DHT22;4763;48.370;10.874;2023-06-10T04:21:28;14.60;99.90
9450;DHT22;4763;48.370;10.874;2023-06-10T04:23:54;14.70;99.90
9450;DHT22;4763;48.370;10.874;2023-06-10T04:26:21;14.70;99.90
9450;DHT22;4763;48.370;10.874;2023-06-10T04:28:48;14.70;99.90
9450;DHT22;4763;48.370;10.874;2023-06-10T04:31:16;14.80;99.90
9450;DHT22;4763;48.370;10.874;2023-06-10T04:33:43;14.90;99.90
9450;DHT22;4763;48.370;10.874;2023-06-10T04:36:10;14.90;99.90
9450;DHT22;4763;48.370;10.874;2023-06-10T04:38:37;14.90;99.90
9450;DHT22;4763;48.370;10.874;2023-06-10T04:41:03;15.00;99.90
9450;DHT22;4763;48.370;10.874;2023-06-10T04:43:30;15.00;99.90
9450;DHT22;4763;48.370;10.874;2023-06-10T04:45:57;15.10;99.90
9450;DHT22;4763;48.370;10.874;2023-06-10T04:48:26;15.10;99.90
9450;DHT22;4763;48.370;10.874;2023-06-10T04:50:53;15.10;99.90
9450;DHT22;4763;48.370;10.874;2023-06-10T04:53:19;15.20;99.90
9450;DHT22;4763;48.370;10.874;2023-06-10T04:55:46;15.20;99.90
9450;DHT22;4763;48.370;10.874;2023-06-10T04:58:13;15.30;99.90
9450;DHT22;4763;48.370;10.874;2023-06-10T05:00:40;15.40;99.90
9450;DHT22;4763;48.370;10.874;2023-06-10T05:03:07;15.30;99.90
9450;DHT22;4763;48.370;10.874;2023-06-10T05:05:35;15.40;99.90
9450;DHT22;4763;48.370;10.874;2023-06-10T05:08:02;15.40;99.90
9450;DHT22;4763;48.370;10.874;2023-06-10T05:10:29;15.50;99.90
9450;DHT22;4763;48.370;10.874;2023-06-10T05:12:57;15.50;99.90
9450;DHT22;4763;48.370;10.874;2023-06-10T05:15:23;15.60;99.90
9450;DHT22;4763;48.370;10.874;2023-06-10T05:17:50;15.70;99.90
9450;DHT22;4763;48.370;10.874;2023-06-10T05:20:18;15.80;99.90
9450;DHT22;4763;48.370;10.874;2023-06-10T05:22:46;15.90;99.90
9450;DHT22;4763;48.370;10.874;2023-06-10T05:25:13;16.00;99.90
9450;DHT22;4763;48.370;10.874;2023-06-10T05:27:40;16.00;99.90
9450;DHT22;4763;48.370;10.874;2023-06-10T05:30:09;16.10;99.90
9450;DHT22;4763;48.370;10.874;2023-06-10T05:32:36;16.20;99.90
9450;DHT22;4763;48.370;10.874;2023-06-10T05:35:03;16.30;99.90
9450;DHT22;4763;48.370;10.874;2023-06-10T05:37:33;16.40;99.90
9450;DHT22;4763;48.370;10.874;2023-06-10T05:40:02;16.40;99.90
9450;DHT22;4763;48.370;10.874;2023-06-10T05:42:29;16.50;99.90
9450;DHT22;4763;48.370;10.874;2023-06-10T05:44:56;16.60;99.90
9450;DHT22;4763;48.370;10.874;2023-06-10T05:47:23;16.70;99.90
9450;DHT22;4763;48.370;10.874;2023-06-10T05:49:50;16.80;99.90
9450;DHT22;4763;48.370;10.874;2023-06-10T05:52:17;16.80;99.90
9450;DHT22;4763;48.370;10.874;2023-06-10T05:54:44;17.00;99.90
9450;DHT22;4763;48.370;10.874;2023-06-10T05:57:12;17.00;99.90
9450;DHT22;4763;48.370;10.874;2023-06-10T05:59:39;17.10;99.90
9450;DHT22;4763;48.370;10.874;2023-06-10T06:02:05;17.10;99.90
9450;DHT22;4763;48.370;10.874;2023-06-10T06:04:33;17.10;99.90
9450;DHT22;4763;48.370;10.874;2023-06-10T06:07:00;17.20;99.90
9450;DHT22;4763;48.370;10.874;2023-06-10T06:09:26;17.40;99.90
9450;DHT22;4763;48.370;10.874;2023-06-10T06:11:53;17.60;99.90
9450;DHT22;4763;48.370;10.874;2023-06-10T06:14:21;17.90;99.90
9450;DHT22;4763;48.370;10.874;2023-06-10T06:16:48;18.10;99.90
9450;DHT22;4763;48.370;10.874;2023-06-10T06:19:15;18.50;99.90
9450;DHT22;4763;48.370;10.874;2023-06-10T06:21:42;18.70;99.90
9450;DHT22;4763;48.370;10.874;2023-06-10T06:24:08;18.90;99.90
9450;DHT22;4763;48.370;10.874;2023-06-10T06:26:35;19.10;99.90
9450;DHT22;4763;48.370;10.874;2023-06-10T06:29:02;19.30;99.90
9450;DHT22;4763;48.370;10.874;2023-06-10T06:31:31;19.50;99.90
9450;DHT22;4763;48.370;10.874;2023-06-10T06:33:58;19.60;99.90
9450;DHT22;4763;48.370;10.874;2023-06-10T06:36:24;19.80;99.90
9450;DHT22;4763;48.370;10.874;2023-06-10T06:38:51;19.90;99.90
9450;DHT22;4763;48.370;10.874;2023-06-10T06:41:18;20.10;99.90
9450;DHT22;4763;48.370;10.874;2023-06-10T06:43:45;20.20;99.90
9450;DHT22;4763;48.370;10.874;2023-06-10T06:46:11;20.30;99.90
9450;DHT22;4763;48.370;10.874;2023-06-10T06:48:39;20.50;99.90
9450;DHT22;4763;48.370;10.874;2023-06-10T06:51:06;20.70;99.90
9450;DHT22;4763;48.370;10.874;2023-06-10T06:53:32;20.80;99.90
9450;DHT22;4763;48.370;10.874;2023-06-10T06:55:59;20.90;99.90
9450;DHT22;4763;48.370;10.874;2023-06-10T06:58:26;21.00;99.90
9450;DHT22;4763;48.370;10.874;2023-06-10T07:00:53;21.10;99.90
9450;DHT22;4763;48.370;10.874;2023-06-10T07:03:19;21.10;99.90
9450;DHT22;4763;48.370;10.874;2023-06-10T07:05:47;21.30;99.90
9450;DHT22;4763;48.370;10.874;2023-06-10T07:08:14;21.40;99.90
9450;DHT22;4763;48.370;10.874;2023-06-10T07:10:41;21.60;99.90
9450;DHT22;4763;48.370;10.874;2023-06-10T07:13:07;21.70;99.90
9450;DHT22;4763;48.370;10.874;2023-06-10T07:15:34;21.80;99.90
9450;DHT22;4763;48.370;10.874;2023-06-10T07:18:01;21.80;99.90
9450;DHT22;4763;48.370;10.874;2023-06-10T07:20:28;21.90;99.90
9450;DHT22;4763;48.370;10.874;2023-06-10T07:22:56;22.10;99.90
9450;DHT22;4763;48.370;10.874;2023-06-10T07:25:22;22.20;99.90
9450;DHT22;4763;48.370;10.874;2023-06-10T07:27:49;22.20;99.90
9450;DHT22;4763;48.370;10.874;2023-06-10T07:30:16;22.40;99.90
9450;DHT22;4763;48.370;10.874;2023-06-10T07:32:43;22.50;99.90
9450;DHT22;4763;48.370;10.874;2023-06-10T07:35:10;22.70;99.90
9450;DHT22;4763;48.370;10.874;2023-06-10T07:37:37;22.80;99.90
9450;DHT22;4763;48.370;10.874;2023-06-10T07:40:06;22.90;99.90
9450;DHT22;4763;48.370;10.874;2023-06-10T07:42:34;23.10;99.90
9450;DHT22;4763;48.370;10.874;2023-06-10T07:45:02;23.00;99.90
9450;DHT22;4763;48.370;10.874;2023-06-10T07:47:29;23.20;99.90
9450;DHT22;4763;48.370;10.874;2023-06-10T07:49:56;23.20;99.90
9450;DHT22;4763;48.370;10.874;2023-06-10T07:52:22;23.20;99.90
9450;DHT22;4763;48.370;10.874;2023-06-10T07:54:49;23.30;99.90
9450;DHT22;4763;48.370;10.874;2023-06-10T07:57:17;23.50;99.90
9450;DHT22;4763;48.370;10.874;2023-06-10T07:59:44;23.70;99.90
9450;DHT22;4763;48.370;10.874;2023-06-10T08:02:10;23.70;99.90
9450;DHT22;4763;48.370;10.874;2023-06-10T08:04:37;23.80;99.90
9450;DHT22;4763;48.370;10.874;2023-06-10T08:07:04;23.90;99.90
9450;DHT22;4763;48.370;10.874;2023-06-10T08:09:31;24.10;99.90
9450;DHT22;4763;48.370;10.874;2023-06-10T08:11:58;24.10;99.90
9450;DHT22;4763;48.370;10.874;2023-06-10T08:14:26;24.00;99.90
9450;DHT22;4763;48.370;10.874;2023-06-10T08:16:52;23.90;99.90
9450;DHT22;4763;48.370;10.874;2023-06-10T08:19:19;24.20;99.90
9450;DHT22;4763;48.370;10.874;2023-06-10T08:21:47;24.40;99.90
9450;DHT22;4763;48.370;10.874;2023-06-10T08:24:14;24.50;99.90
9450;DHT22;4763;48.370;10.874;2023-06-10T08:26:43;24.60;99.90
9450;DHT22;4763;48.370;10.874;2023-06-10T08:29:11;24.80;99.90
9450;DHT22;4763;48.370;10.874;2023-06-10T08:31:41;24.80;99.90
9450;DHT22;4763;48.370;10.874;2023-06-10T08:34:08;25.00;99.90
9450;DHT22;4763;48.370;10.874;2023-06-10T08:36:35;25.20;99.90
9450;DHT22;4763;48.370;10.874;2023-06-10T08:39:02;25.00;99.90
9450;DHT22;4763;48.370;10.874;2023-06-10T08:41:32;25.00;99.90
9450;DHT22;4763;48.370;10.874;2023-06-10T08:44:06;24.80;99.90
9450;DHT22;4763;48.370;10.874;2023-06-10T08:46:34;25.20;99.90
9450;DHT22;4763;48.370;10.874;2023-06-10T08:49:05;25.30;99.90
9450;DHT22;4763;48.370;10.874;2023-06-10T08:51:34;25.60;99.90
9450;DHT22;4763;48.370;10.874;2023-06-10T08:54:04;25.50;99.90
9450;DHT22;4763;48.370;10.874;2023-06-10T08:56:33;25.20;99.90
9450;DHT22;4763;48.370;10.874;2023-06-10T08:59:04;25.50;99.90
9450;DHT22;4763;48.370;10.874;2023-06-10T09:01:33;25.80;99.90
9450;DHT22;4763;48.370;10.874;2023-06-10T09:04:02;25.90;99.90
9450;DHT22;4763;48.370;10.874;2023-06-10T09:06:32;25.90;99.90
9450;DHT22;4763;48.370;10.874;2023-06-10T09:08:59;25.90;99.90
9450;DHT22;4763;48.370;10.874;2023-06-10T09:11:26;26.10;99.90
9450;DHT22;4763;48.370;10.874;2023-06-10T09:13:53;26.20;99.90
9450;DHT22;4763;48.370;10.874;2023-06-10T09:16:24;26.60;99.90
9450;DHT22;4763;48.370;10.874;2023-06-10T09:18:51;26.60;99.90
9450;DHT22;4763;48.370;10.874;2023-06-10T09:21:22;26.20;99.90
9450;DHT22;4763;48.370;10.874;2023-06-10T09:23:48;25.90;99.90
9450;DHT22;4763;48.370;10.874;2023-06-10T09:26:16;25.60;99.90
9450;DHT22;4763;48.370;10.874;2023-06-10T09:28:43;25.50;99.90
9450;DHT22;4763;48.370;10.874;2023-06-10T09:31:11;25.00;99.90
9450;DHT22;4763;48.370;10.874;2023-06-10T09:33:39;25.00;99.90
9450;DHT22;4763;48.370;10.874;2023-06-10T09:36:06;24.90;99.90
9450;DHT22;4763;48.370;10.874;2023-06-10T09:38:35;24.80;99.90
9450;DHT22;4763;48.370;10.874;2023-06-10T09:41:03;24.80;99.90
9450;DHT22;4763;48.370;10.874;2023-06-10T09:43:40;24.70;99.90
9450;DHT22;4763;48.370;10.874;2023-06-10T09:46:14;24.40;99.90
9450;DHT22;4763;48.370;10.874;2023-06-10T09:48:42;24.20;99.90
9450;DHT22;4763;48.370;10.874;2023-06-10T09:51:09;24.10;99.90
9450;DHT22;4763;48.370;10.874;2023-06-10T09:53:38;24.10;99.90
9450;DHT22;4763;48.370;10.874;2023-06-10T09:56:05;24.00;99.90
9450;DHT22;4763;48.370;10.874;2023-06-10T09:58:36;23.90;99.90
9450;DHT22;4763;48.370;10.874;2023-06-10T10:01:07;24.50;99.90
9450;DHT22;4763;48.370;10.874;2023-06-10T10:03:44;25.30;99.90
9450;DHT22;4763;48.370;10.874;2023-06-10T10:06:12;26.10;99.90
9450;DHT22;4763;48.370;10.874;2023-06-10T10:08:40;26.30;99.90
9450;DHT22;4763;48.370;10.874;2023-06-10T10:11:10;26.80;99.90
9450;DHT22;4763;48.370;10.874;2023-06-10T10:13:37;27.30;99.90
9450;DHT22;4763;48.370;10.874;2023-06-10T10:16:10;27.40;99.90
9450;DHT22;4763;48.370;10.874;2023-06-10T10:18:39;27.30;99.90
9450;DHT22;4763;48.370;10.874;2023-06-10T10:21:12;27.90;99.90
9450;DHT22;4763;48.370;10.874;2023-06-10T10:23:52;27.60;99.90
9450;DHT22;4763;48.370;10.874;2023-06-10T10:26:27;27.20;99.90
9450;DHT22;4763;48.370;10.874;2023-06-10T10:29:07;27.50;99.90
9450;DHT22;4763;48.370;10.874;2023-06-10T10:31:40;27.10;99.90
9450;DHT22;4763;48.370;10.874;2023-06-10T10:34:13;27.00;99.90
9450;DHT22;4763;48.370;10.874;2023-06-10T10:36:42;27.30;99.90
9450;DHT22;4763;48.370;10.874;2023-06-10T10:39:11;27.70;99.90
9450;DHT22;4763;48.370;10.874;2023-06-10T10:41:39;27.50;99.90
9450;DHT22;4763;48.370;10.874;2023-06-10T10:44:07;28.00;99.90
9450;DHT22;4763;48.370;10.874;2023-06-10T10:46:42;28.60;99.90
9450;DHT22;4763;48.370;10.874;2023-06-10T10:49:17;28.20;99.90
9450;DHT22;4763;48.370;10.874;2023-06-10T10:51:56;27.30;99.90
9450;DHT22;4763;48.370;10.874;2023-06-10T10:54:30;26.80;99.90
9450;DHT22;4763;48.370;10.874;2023-06-10T10:57:17;27.10;99.90
9450;DHT22;4763;48.370;10.874;2023-06-10T10:59:58;27.10;99.90
9450;DHT22;4763;48.370;10.874;2023-06-10T11:02:39;26.70;99.90
9450;DHT22;4763;48.370;10.874;2023-06-10T11:05:16;26.60;99.90
9450;DHT22;4763;48.370;10.874;2023-06-10T11:07:55;26.60;99.90
9450;DHT22;4763;48.370;10.874;2023-06-10T11:10:30;26.90;99.90
9450;DHT22;4763;48.370;10.874;2023-06-10T11:12:57;27.20;99.90
9450;DHT22;4763;48.370;10.874;2023-06-10T11:15:25;27.80;99.90
9450;DHT22;4763;48.370;10.874;2023-06-10T11:18:21;28.00;99.90
9450;DHT22;4763;48.370;10.874;2023-06-10T11:20:57;28.60;99.90
9450;DHT22;4763;48.370;10.874;2023-06-10T11:23:37;28.80;99.90
9450;DHT22;4763;48.370;10.874;2023-06-10T11:26:30;28.60;99.90
9450;DHT22;4763;48.370;10.874;2023-06-10T11:29:09;28.00;99.90
9450;DHT22;4763;48.370;10.874;2023-06-10T11:31:44;27.30;99.90
9450;DHT22;4763;48.370;10.874;2023-06-10T11:34:11;27.90;99.90
9450;DHT22;4763;48.370;10.874;2023-06-10T11:36:40;28.40;99.90
9450;DHT22;4763;48.370;10.874;2023-06-10T11:39:09;29.00;99.90
9450;DHT22;4763;48.370;10.874;2023-06-10T11:41:38;29.20;99.90
9450;DHT22;4763;48.370;10.874;2023-06-10T11:44:08;28.80;99.90
9450;DHT22;4763;48.370;10.874;2023-06-10T11:46:36;28.40;99.90
9450;DHT22;4763;48.370;10.874;2023-06-10T11:49:11;28.60;99.90
9450;DHT22;4763;48.370;10.874;2023-06-10T11:51:39;29.20;99.90
9450;DHT22;4763;48.370;10.874;2023-06-10T11:54:08;29.20;99.90
9450;DHT22;4763;48.370;10.874;2023-06-10T11:56:37;28.70;99.90
9450;DHT22;4763;48.370;10.874;2023-06-10T11:59:05;28.20;99.90
9450;DHT22;4763;48.370;10.874;2023-06-10T12:01:34;28.40;99.90
9450;DHT22;4763;48.370;10.874;2023-06-10T12:04:03;28.00;99.90
9450;DHT22;4763;48.370;10.874;2023-06-10T12:06:39;27.90;99.90
9450;DHT22;4763;48.370;10.874;2023-06-10T12:09:06;27.80;99.90
9450;DHT22;4763;48.370;10.874;2023-06-10T12:11:33;27.60;99.90
9450;DHT22;4763;48.370;10.874;2023-06-10T12:14:05;27.40;99.90
9450;DHT22;4763;48.370;10.874;2023-06-10T12:16:32;27.40;99.90
9450;DHT22;4763;48.370;10.874;2023-06-10T12:19:03;28.00;99.90
9450;DHT22;4763;48.370;10.874;2023-06-10T12:21:31;28.50;99.90
9450;DHT22;4763;48.370;10.874;2023-06-10T12:24:17;28.70;99.90
9450;DHT22;4763;48.370;10.874;2023-06-10T12:26:59;29.00;99.90
9450;DHT22;4763;48.370;10.874;2023-06-10T12:29:30;29.60;99.90
9450;DHT22;4763;48.370;10.874;2023-06-10T12:32:02;29.60;99.90
9450;DHT22;4763;48.370;10.874;2023-06-10T12:34:35;29.60;99.90
9450;DHT22;4763;48.370;10.874;2023-06-10T12:37:13;29.70;99.90
9450;DHT22;4763;48.370;10.874;2023-06-10T12:39:42;30.00;99.90
9450;DHT22;4763;48.370;10.874;2023-06-10T12:42:17;29.70;99.90
9450;DHT22;4763;48.370;10.874;2023-06-10T12:44:53;29.60;99.90
9450;DHT22;4763;48.370;10.874;2023-06-10T12:47:21;29.90;99.90
9450;DHT22;4763;48.370;10.874;2023-06-10T12:49:57;30.00;99.90
9450;DHT22;4763;48.370;10.874;2023-06-10T12:52:26;30.20;99.90
9450;DHT22;4763;48.370;10.874;2023-06-10T12:54:53;30.20;99.90
9450;DHT22;4763;48.370;10.874;2023-06-10T12:57:20;30.00;99.90
9450;DHT22;4763;48.370;10.874;2023-06-10T12:59:46;30.00;99.90
9450;DHT22;4763;48.370;10.874;2023-06-10T13:02:19;30.30;99.90
9450;DHT22;4763;48.370;10.874;2023-06-10T13:04:49;30.40;99.90
9450;DHT22;4763;48.370;10.874;2023-06-10T13:07:19;30.10;99.90
9450;DHT22;4763;48.370;10.874;2023-06-10T13:09:48;29.90;99.90
9450;DHT22;4763;48.370;10.874;2023-06-10T13:12:15;29.80;99.90
9450;DHT22;4763;48.370;10.874;2023-06-10T13:14:48;29.60;99.90
9450;DHT22;4763;48.370;10.874;2023-06-10T13:17:15;29.50;99.90
9450;DHT22;4763;48.370;10.874;2023-06-10T13:19:43;29.20;99.90
9450;DHT22;4763;48.370;10.874;2023-06-10T13:22:10;29.70;99.90
9450;DHT22;4763;48.370;10.874;2023-06-10T13:24:39;30.20;99.90
9450;DHT22;4763;48.370;10.874;2023-06-10T13:27:06;30.20;99.90
9450;DHT22;4763;48.370;10.874;2023-06-10T13:29:35;30.20;99.90
9450;DHT22;4763;48.370;10.874;2023-06-10T13:32:01;30.10;99.90
9450;DHT22;4763;48.370;10.874;2023-06-10T13:34:28;30.10;99.90
9450;DHT22;4763;48.370;10.874;2023-06-10T13:36:57;29.90;99.90
9450;DHT22;4763;48.370;10.874;2023-06-10T13:39:24;30.10;99.90
9450;DHT22;4763;48.370;10.874;2023-06-10T13:41:56;30.10;99.90
9450;DHT22;4763;48.370;10.874;2023-06-10T13:44:30;29.70;99.90
9450;DHT22;4763;48.370;10.874;2023-06-10T13:47:05;29.20;99.90
9450;DHT22;4763;48.370;10.874;2023-06-10T13:49:35;29.20;99.90
9450;DHT22;4763;48.370;10.874;2023-06-10T13:52:05;29.20;99.90
9450;DHT22;4763;48.370;10.874;2023-06-10T13:54:34;29.60;99.90
9450;DHT22;4763;48.370;10.874;2023-06-10T13:57:02;29.70;99.90
9450;DHT22;4763;48.370;10.874;2023-06-10T13:59:29;29.80;99.90
9450;DHT22;4763;48.370;10.874;2023-06-10T14:01:56;30.20;99.90
9450;DHT22;4763;48.370;10.874;2023-06-10T14:04:25;30.10;99.90
9450;DHT22;4763;48.370;10.874;2023-06-10T14:06:53;30.10;98.50
9450;DHT22;4763;48.370;10.874;2023-06-10T14:09:27;30.30;99.90
9450;DHT22;4763;48.370;10.874;2023-06-10T14:11:59;29.60;99.40
9450;DHT22;4763;48.370;10.874;2023-06-10T14:14:28;29.80;99.90
9450;DHT22;4763;48.370;10.874;2023-06-10T14:16:55;30.20;98.00
9450;DHT22;4763;48.370;10.874;2023-06-10T14:19:22;30.30;97.60
9450;DHT22;4763;48.370;10.874;2023-06-10T14:21:49;30.50;97.70
9450;DHT22;4763;48.370;10.874;2023-06-10T14:24:20;30.10;97.70
9450;DHT22;4763;48.370;10.874;2023-06-10T14:26:49;30.00;97.70
9450;DHT22;4763;48.370;10.874;2023-06-10T14:29:16;29.90;97.10
9450;DHT22;4763;48.370;10.874;2023-06-10T14:32:04;29.80;97.50
9450;DHT22;4763;48.370;10.874;2023-06-10T14:34:31;30.00;98.00
9450;DHT22;4763;48.370;10.874;2023-06-10T14:37:04;29.70;98.50
9450;DHT22;4763;48.370;10.874;2023-06-10T14:39:32;29.90;98.60
9450;DHT22;4763;48.370;10.874;2023-06-10T14:42:16;30.30;99.90
9450;DHT22;4763;48.370;10.874;2023-06-10T14:44:44;30.70;97.10
9450;DHT22;4763;48.370;10.874;2023-06-10T14:47:11;30.00;97.00
9450;DHT22;4763;48.370;10.874;2023-06-10T14:49:37;29.90;96.90
9450;DHT22;4763;48.370;10.874;2023-06-10T14:52:04;30.10;97.50
9450;DHT22;4763;48.370;10.874;2023-06-10T14:54:31;30.40;96.20
9450;DHT22;4763;48.370;10.874;2023-06-10T14:56:58;30.30;96.70
9450;DHT22;4763;48.370;10.874;2023-06-10T14:59:26;30.10;97.60
9450;DHT22;4763;48.370;10.874;2023-06-10T15:01:53;30.10;97.70
9450;DHT22;4763;48.370;10.874;2023-06-10T15:04:20;30.10;97.60
9450;DHT22;4763;48.370;10.874;2023-06-10T15:06:47;30.40;98.20
9450;DHT22;4763;48.370;10.874;2023-06-10T15:09:15;30.50;97.70
9450;DHT22;4763;48.370;10.874;2023-06-10T15:11:42;30.50;97.80
9450;DHT22;4763;48.370;10.874;2023-06-10T15:14:09;30.70;97.30
9450;DHT22;4763;48.370;10.874;2023-06-10T15:16:37;30.60;98.10
9450;DHT22;4763;48.370;10.874;2023-06-10T15:19:03;30.80;98.00
9450;DHT22;4763;48.370;10.874;2023-06-10T15:21:32;30.60;96.60
9450;DHT22;4763;48.370;10.874;2023-06-10T15:23:58;30.70;95.80
9450;DHT22;4763;48.370;10.874;2023-06-10T15:26:25;30.10;97.00
9450;DHT22;4763;48.370;10.874;2023-06-10T15:28:52;29.60;97.90
9450;DHT22;4763;48.370;10.874;2023-06-10T15:31:19;29.20;99.00
9450;DHT22;4763;48.370;10.874;2023-06-10T15:33:47;28.70;99.50
9450;DHT22;4763;48.370;10.874;2023-06-10T15:36:14;28.40;99.50
9450;DHT22;4763;48.370;10.874;2023-06-10T15:38:41;28.30;99.80
9450;DHT22;4763;48.370;10.874;2023-06-10T15:41:08;27.90;99.10
9450;DHT22;4763;48.370;10.874;2023-06-10T15:43:35;27.60;99.70
9450;DHT22;4763;48.370;10.874;2023-06-10T15:46:01;27.50;99.40
9450;DHT22;4763;48.370;10.874;2023-06-10T15:48:28;27.40;99.90
9450;DHT22;4763;48.370;10.874;2023-06-10T15:50:56;27.30;99.80
9450;DHT22;4763;48.370;10.874;2023-06-10T15:53:23;27.20;99.30
9450;DHT22;4763;48.370;10.874;2023-06-10T15:55:50;27.20;98.70